• Join FlightAware (Why Join?)
  • Login
  • US Flag 
11:49PM EDT


 

Airport Tracker/Info


-or-


 

Live Flight TrackerFlight Track Log ✈ AWE1940 ✈ 22-Jun-2013 ✈ KCLT - KALB

Flight Track Log - Related Links

Times and Time Zones

All times are in EDT time to prevent confusion due to time zone crossing. See the AWE1940 flight status page for this flight to view local times or setup timezone preferences in your user account.

Time Position Orientation Groundspeed Altitude Reporting Facility
EDT Latitude Longitude Course Direction KTS MPH feet Rate Location/Type
10:47PM 35.1950 -80.9356 72° East 159 183 1,500  Level Atlanta Center
10:48PM 35.1339 -80.9075 159° South 244 281 3,600 2,160 Climbing Atlanta Center
10:49PM 35.0944 -80.8353 124° Southeast 280 322 6,400 2,880 Climbing Atlanta Center
10:50PM 35.2000 -80.5667 30° Northeast  Level FlightAware Approximate
10:50PM 35.1167 -80.7353 75° East 293 337 10,000  Level Atlanta Center
10:51PM 35.2930 -80.5003 30° Northeast  Level FlightAware Approximate
10:51PM 35.1644 -80.6494 56° Northeast 304 350 12,900  Level Atlanta Center
10:52PM 35.3488 -80.4084 72° East  Level FlightAware Approximate
10:52PM 35.2100 -80.5614 58° Northeast 310 357 14,700  Level Atlanta Center
10:53PM 35.2617 -80.4700 55° Northeast 315 362 17,900 2,460 Climbing Atlanta Center
10:56PM 35.3903 -80.2267 57° Northeast 361 415 23,000 1,560 Climbing Washington Center
10:57PM 35.4408 -80.1019 64° Northeast 393 452 23,200 840 Climbing Washington Center
10:58PM 35.4767 -79.9817 70° East 400 460 24,700 1,740 Climbing Washington Center
10:59PM 35.5111 -79.8381 74° East 422 486 26,800 1,320 Climbing Washington Center
11:00PM 35.5475 -79.6944 73° East 432 497 27,400 1,380 Climbing Washington Center
11:01PM 35.5833 -79.5533 73° East 432 497 29,600 1,680 Climbing Washington Center
11:02PM 35.6258 -79.4047 71° East 444 511 30,800 1,800 Climbing Washington Center
11:03PM 35.6822 -79.2667 63° Northeast 444 511 33,200 1,980 Climbing Washington Center
11:04PM 35.7408 -79.1286 62° Northeast 450 518 34,800 1,500 Climbing Washington Center
11:05PM 35.7972 -78.9850 64° Northeast 455 524 36,200 1,080 Climbing Washington Center
11:06PM 35.8675 -78.8550 56° Northeast 455 524 37,000 360 Climbing Washington Center
11:07PM 35.9522 -78.7325 49° Northeast 460 529 37,000  Level Washington Center
11:08PM 36.0325 -78.6075 52° Northeast 460 529 37,000  Level Washington Center
11:09PM 36.1128 -78.4819 52° Northeast 460 529 37,000  Level Washington Center
11:10PM 36.1908 -78.3639 51° Northeast 460 529 37,000  Level Washington Center
11:11PM 36.2708 -78.2431 51° Northeast 454 522 37,000  Level Washington Center
11:12PM 36.3486 -78.1192 52° Northeast 454 522 37,000  Level Washington Center
11:13PM 36.4261 -77.9978 52° Northeast 454 522 37,000  Level Washington Center
11:14PM 36.5036 -77.8736 52° Northeast 454 522 37,000  Level Washington Center
11:15PM 36.5831 -77.7544 50° Northeast 454 522 37,000  Level Washington Center
11:16PM 36.6603 -77.6297 52° Northeast 454 522 37,000  Level Washington Center
11:17PM 36.7394 -77.5072 51° Northeast 454 522 37,000  Level Washington Center
11:18PM 36.8167 -77.3819 52° Northeast 454 522 37,000  Level Washington Center
11:19PM 36.8956 -77.2567 52° Northeast 454 522 37,000  Level Washington Center
11:20PM 36.9744 -77.1311 52° Northeast 454 522 37,000  Level Washington Center
11:21PM 37.0531 -77.0050 52° Northeast 454 522 37,000  Level Washington Center
11:22PM 37.1403 -76.8633 52° Northeast 454 522 37,000  Level Washington Center
11:23PM 37.2189 -76.7342 53° Northeast 459 528 37,000  Level Washington Center
11:24PM 37.2992 -76.6128 50° Northeast 459 528 37,000  Level Washington Center
11:25PM 37.3772 -76.4883 52° Northeast 454 522 37,000 -120 Level Washington Center
11:26PM 37.4533 -76.3661 52° Northeast 454 522 36,800 -600 Descending Washington Center
11:27PM 37.5414 -76.2572 44° Northeast 443 510 35,800 -900 Descending Washington Center
11:28PM 37.6442 -76.1636 36° Northeast 437 503 35,000 -420 Descending Washington Center
11:29PM 37.7489 -76.0778 33° Northeast 447 514 35,000  Level Washington Center
11:30PM 37.8514 -75.9861 35° Northeast 447 514 35,000  Level Washington Center
11:31PM 37.9517 -75.9158 29° Northeast 447 514 35,000  Level Washington Center
11:32PM 38.0583 -75.8397 29° Northeast 447 514 35,000  Level Washington Center
11:33PM 38.1647 -75.7581 31° Northeast 447 514 35,000  Level Washington Center
11:34PM 38.2692 -75.6789 31° Northeast 447 514 35,000  Level Washington Center
11:35PM 38.3878 -75.5997 28° Northeast 442 509 35,000  Level Washington Center
11:36PM 38.4900 -75.5175 32° Northeast 436 502 35,000 -60 Level Washington Center
11:37PM 38.5942 -75.4375 31° Northeast 436 502 34,900  Descending Washington Center
11:38PM 38.7003 -75.3550 31° Northeast 436 502 35,000  Climbing Washington Center
11:39PM 38.8086 -75.2747 30° Northeast 436 502 35,000  Level Washington Center
11:40PM 38.9147 -75.1942 31° Northeast 436 502 35,000  Level Washington Center
11:41PM 39.0247 -75.1133 30° Northeast 441 507 35,000  Level Washington Center
11:42PM 39.1286 -75.0325 31° Northeast 441 507 35,000  Level Washington Center
11:43PM 39.2347 -74.9511 31° Northeast 441 507 35,000  Level Washington Center
11:44PM 39.3383 -74.8669 32° Northeast 441 507 35,000  Level Washington Center
11:46PM 39.5836 -74.6875 29° Northeast 430 495 35,000  Level New York Center
11:47PM 39.7033 -74.6592 10° North 431 496 35,000  Level New York Center
11:48PM 39.8233 -74.6253 12° North 436 502 35,000  Level New York Center
11:50PM 40.0611 -74.5625 11° North 431 496 35,000  Level New York Center
11:51PM 40.1831 -74.5283 12° North 431 496 35,000  Level New York Center
11:52PM 40.3008 -74.4939 13° North 436 502 35,000 -420 Level New York Center
11:53PM 40.4228 -74.4597 12° North 436 502 34,200 -840 Descending New York Center
11:54PM 40.5425 -74.4278 11° North 431 496 33,300 -960 Descending New York Center
11:55PM 40.6644 -74.3933 12° North 431 496 32,300 -1,020 Descending New York Center
11:57PM 40.8608 -74.3447 11° North 441 507 30,700 -1,080 Descending Boston Center
11:58PM 40.9844 -74.3097 12° North 441 507 29,600 -1,200 Descending Boston Center
11:59PM 41.1081 -74.2747 12° North 446 513 28,300 -1,260 Descending Boston Center
12:00AM 41.2336 -74.2425 11° North 453 521 27,100 -1,140 Descending Boston Center
12:01AM 41.3444 -74.2069 14° North 447 514 26,100 -780 Descending Boston Center
12:02AM 41.4658 -74.1714 12° North 447 514 25,600 -1,440 Descending Boston Center
12:03AM 41.5978 -74.1361 11° North 452 520 23,300 -2,340 Descending Boston Center
12:04AM 41.7128 -74.1031 12° North 432 497 21,000 -2,280 Descending Boston Center
12:05AM 41.8111 -74.0778 11° North 415 478 18,800 -2,160 Descending Boston Center
12:06AM 41.9453 -74.0394 12° North 398 458 16,500 -1,980 Descending Boston Center
12:07AM 42.0497 -74.0086 12° North 380 437 14,700 -1,800 Descending Boston Center
12:08AM 42.1503 -73.9775 13° North 374 430 12,900 -1,740 Descending Boston Center
12:09AM 42.2464 -73.9575 North 350 403 11,200 -1,380 Descending Boston Center
12:10AM 42.3339 -73.9622 358° North 297 342 10,100 -1,440 Descending Boston Center
12:11AM 42.4131 -73.9586 North 275 316 8,400 -1,740 Descending Boston Center
12:12AM 42.4903 -73.9633 357° North 276 318 6,600 -1,500 Descending Boston Center
12:12AM 42.5175 -73.9583 North 282 325 6,100 -1,560 Descending Boston Center
12:13AM 42.5986 -73.9631 358° North 269 310 4,300 -1,440 Descending Boston Center
12:14AM 42.6383 -73.9586 North 260 299 4,000 -300 Descending Boston Center
12:14AM 42.6694 -73.9564 North 264 304 4,000  Level Boston Center
12:15AM 42.7069 -73.9572 359° North 238 274 4,000  Level Boston Center
12:16AM 42.7758 -73.9506 North 208 239 4,000 -480 Level Boston Center
12:17AM 42.8142 -73.8978 45° Northeast 207 238 3,000 -1,140 Descending Boston Center
12:18AM 42.8297 -73.8303 73° East 179 206 1,800 -1,020 Descending Boston Center
12:19AM 42.8006 -73.8097 153° Southeast 110 127 1,000 -660 Descending Boston Center
12:20AM 42.7694 -73.8089 179° South 105 121 500 -540 Descending Boston Center
12:22AM 42.7491 -73.8020 36° Northeast  Level Estimated
12:29AM 42.7491 -73.8020 36° Northeast  Level Estimated
12:30AM 42.7491 -73.8020 36° Northeast  Level Estimated